createdAt,value
2022-09-13T00:00:39.695Z,10.87
2022-09-13T00:03:06.094Z,11.17
2022-09-13T00:05:32.657Z,10.43
2022-09-13T00:07:59.276Z,10.63
2022-09-13T00:10:26.220Z,10.37
2022-09-13T00:12:53.466Z,10.00
2022-09-13T00:15:20.290Z,9.47
2022-09-13T00:17:47.250Z,10.30
2022-09-13T00:20:14.158Z,9.50
2022-09-13T00:22:40.690Z,10.00
2022-09-13T00:25:08.257Z,9.07
2022-09-13T00:27:36.048Z,9.10
2022-09-13T00:30:05.223Z,9.90
2022-09-13T00:32:32.157Z,8.90
2022-09-13T00:34:58.527Z,9.70
2022-09-13T00:37:24.943Z,8.93
2022-09-13T00:39:51.352Z,10.27
2022-09-13T00:42:18.368Z,10.00
2022-09-13T00:44:59.271Z,11.23
2022-09-13T00:48:07.900Z,11.53
2022-09-13T00:50:39.331Z,11.73
2022-09-13T00:53:13.790Z,12.10
2022-09-13T00:55:50.088Z,11.30
2022-09-13T00:58:42.993Z,13.70
2022-09-13T01:01:12.769Z,13.20
2022-09-13T01:03:40.092Z,13.77
2022-09-13T01:06:11.516Z,13.23
2022-09-13T01:08:41.990Z,12.80
2022-09-13T01:11:19.564Z,12.87
2022-09-13T01:13:47.771Z,13.67
2022-09-13T01:16:14.273Z,12.57
2022-09-13T01:18:41.780Z,13.23
2022-09-13T01:21:33.120Z,12.60
2022-09-13T01:24:24.447Z,13.73
2022-09-13T01:27:28.610Z,13.00
2022-09-13T01:30:21.114Z,13.53
2022-09-13T01:33:02.733Z,12.47
2022-09-13T01:35:53.540Z,12.97
2022-09-13T01:38:42.276Z,11.80
2022-09-13T01:41:42.790Z,13.47
2022-09-13T01:44:24.555Z,12.57
2022-09-13T01:46:56.861Z,12.27
2022-09-13T01:49:35.518Z,12.43
2022-09-13T01:52:09.557Z,11.83
2022-09-13T01:54:52.344Z,12.63
2022-09-13T01:57:30.325Z,11.47
2022-09-13T02:00:02.709Z,11.47
2022-09-13T02:02:43.378Z,11.60
2022-09-13T02:05:23.999Z,12.50
2022-09-13T02:07:58.252Z,11.03
2022-09-13T02:10:59.759Z,11.03
2022-09-13T02:13:31.767Z,11.37
2022-09-13T02:16:06.231Z,10.40
2022-09-13T02:18:39.933Z,11.37
2022-09-13T02:21:14.812Z,10.60
2022-09-13T02:23:48.063Z,11.47
2022-09-13T02:26:15.611Z,10.27
2022-09-13T02:28:48.118Z,11.53
2022-09-13T02:31:19.474Z,10.17
2022-09-13T02:33:52.098Z,10.90
2022-09-13T02:36:25.932Z,10.50
2022-09-13T02:39:12.300Z,9.97
2022-09-13T02:42:00.429Z,10.03
2022-09-13T02:44:36.134Z,10.43
2022-09-13T02:47:14.337Z,10.10
2022-09-13T02:49:48.441Z,10.37
2022-09-13T02:52:39.762Z,9.50
2022-09-13T02:55:16.350Z,9.70
2022-09-13T02:57:55.306Z,10.90
2022-09-13T03:00:22.560Z,9.93
2022-09-13T03:02:50.933Z,10.53
2022-09-13T03:05:17.614Z,9.10
2022-09-13T03:07:44.105Z,9.80
2022-09-13T03:10:14.721Z,10.57
2022-09-13T03:13:05.999Z,10.47
2022-09-13T03:15:54.200Z,11.20
2022-09-13T03:18:51.721Z,10.17
2022-09-13T03:21:33.362Z,11.03
2022-09-13T03:24:06.923Z,10.40
2022-09-13T03:27:05.602Z,9.57
2022-09-13T03:30:12.478Z,10.33
2022-09-13T03:33:00.692Z,10.33
2022-09-13T03:35:51.901Z,9.47
2022-09-13T03:38:32.465Z,10.27
2022-09-13T03:41:11.334Z,9.93
2022-09-13T03:43:43.728Z,9.70
2022-09-13T03:46:20.278Z,10.03
2022-09-13T03:48:47.717Z,10.87
2022-09-13T03:51:14.879Z,9.57
2022-09-13T03:53:53.088Z,10.17
2022-09-13T03:56:20.756Z,11.07
2022-09-13T03:58:48.709Z,12.10
2022-09-13T04:01:20.283Z,11.93
2022-09-13T04:03:46.722Z,13.23
2022-09-13T04:06:13.247Z,13.67
2022-09-13T04:08:39.671Z,13.27
2022-09-13T04:11:06.297Z,13.63
2022-09-13T04:13:33.039Z,13.97
2022-09-13T04:16:03.848Z,13.70
2022-09-13T04:18:31.003Z,13.13
2022-09-13T04:20:59.754Z,13.67
2022-09-13T04:23:27.607Z,13.73
2022-09-13T04:25:54.056Z,13.33
2022-09-13T04:28:21.903Z,13.40
2022-09-13T04:30:49.509Z,13.37
2022-09-13T04:33:17.297Z,13.13
2022-09-13T04:35:43.951Z,12.80
2022-09-13T04:38:11.514Z,12.47
2022-09-13T04:40:39.132Z,12.63
2022-09-13T04:43:05.500Z,11.77
2022-09-13T04:45:32.474Z,11.97
2022-09-13T04:47:58.942Z,11.53
2022-09-13T04:50:25.710Z,11.60
2022-09-13T04:52:55.380Z,9.17
2022-09-13T04:55:22.186Z,9.30
2022-09-13T04:57:53.014Z,8.77
2022-09-13T05:00:19.563Z,8.90
2022-09-13T05:02:46.059Z,8.87
2022-09-13T05:05:12.465Z,8.60
2022-09-13T05:07:39.308Z,7.53
2022-09-13T05:10:06.213Z,8.27
2022-09-13T05:12:33.603Z,8.00
2022-09-13T05:15:00.018Z,8.17
2022-09-13T05:17:26.513Z,6.73
2022-09-13T05:19:52.854Z,5.60
2022-09-13T05:22:19.297Z,4.20
2022-09-13T05:24:45.623Z,4.37
2022-09-13T05:27:12.054Z,2.93
2022-09-13T05:29:38.419Z,2.40
2022-09-13T05:32:04.905Z,1.83
2022-09-13T05:34:31.355Z,2.20
2022-09-13T05:36:57.733Z,2.47
2022-09-13T05:39:34.020Z,1.87
2022-09-13T05:42:06.267Z,2.10
2022-09-13T05:44:32.701Z,2.23
2022-09-13T05:46:59.085Z,2.80
2022-09-13T05:49:25.668Z,1.90
2022-09-13T05:51:52.019Z,1.83
2022-09-13T05:54:18.521Z,1.97
2022-09-13T05:56:44.885Z,2.73
2022-09-13T05:59:14.127Z,2.40
2022-09-13T06:01:41.192Z,3.20
2022-09-13T06:04:07.644Z,2.63
2022-09-13T06:06:35.251Z,2.70
2022-09-13T06:09:01.678Z,2.43
2022-09-13T06:11:28.379Z,3.60
2022-09-13T06:13:54.834Z,2.87
2022-09-13T06:16:21.669Z,3.27
2022-09-13T06:18:48.942Z,2.60
2022-09-13T06:21:18.498Z,2.17
2022-09-13T06:23:46.350Z,2.33
2022-09-13T06:26:15.656Z,2.00
2022-09-13T06:28:42.639Z,2.20
2022-09-13T06:31:14.559Z,2.17
2022-09-13T06:33:42.646Z,1.80
2022-09-13T06:36:11.479Z,1.70
2022-09-13T06:38:39.496Z,1.53
2022-09-13T06:41:08.900Z,2.10
2022-09-13T06:43:35.825Z,1.90
2022-09-13T06:46:10.617Z,1.87
2022-09-13T06:48:39.332Z,2.43
2022-09-13T06:51:12.006Z,2.43
2022-09-13T06:53:38.879Z,1.90
2022-09-13T06:56:10.536Z,1.60
2022-09-13T06:58:38.135Z,1.80
2022-09-13T07:01:21.848Z,1.90
2022-09-13T07:04:06.088Z,1.50
2022-09-13T07:06:35.409Z,1.53
2022-09-13T07:09:03.601Z,1.37
2022-09-13T07:11:33.475Z,1.33
2022-09-13T07:14:01.145Z,1.30
2022-09-13T07:16:31.663Z,1.50
2022-09-13T07:19:00.759Z,1.43
2022-09-13T07:21:28.195Z,1.13
2022-09-13T07:23:56.901Z,1.10
2022-09-13T07:26:25.008Z,1.60
2022-09-13T07:28:54.094Z,1.70
2022-09-13T07:31:23.266Z,1.10
2022-09-13T07:34:12.856Z,1.20
2022-09-13T07:36:39.192Z,1.30
2022-09-13T07:39:06.734Z,1.20
2022-09-13T07:41:35.106Z,0.90
2022-09-13T07:44:02.102Z,1.03
2022-09-13T07:46:33.687Z,1.20
2022-09-13T07:49:01.649Z,0.90
2022-09-13T07:51:30.892Z,1.10
2022-09-13T07:54:03.607Z,0.80
2022-09-13T07:56:32.497Z,0.90
2022-09-13T07:59:00.898Z,0.90
2022-09-13T08:01:39.672Z,1.00
2022-09-13T08:04:08.904Z,1.30
2022-09-13T08:06:36.950Z,1.10
2022-09-13T08:09:05.278Z,1.03
2022-09-13T08:11:40.374Z,1.10
2022-09-13T08:14:09.871Z,0.93
2022-09-13T08:16:36.331Z,0.97
2022-09-13T08:19:04.477Z,1.10
2022-09-13T08:21:36.363Z,1.20
2022-09-13T08:24:03.576Z,1.37
2022-09-13T08:26:32.427Z,0.67
2022-09-13T08:29:01.447Z,1.00
2022-09-13T08:31:28.907Z,0.90
2022-09-13T08:33:56.011Z,1.10
2022-09-13T08:36:24.036Z,0.87
2022-09-13T08:38:54.630Z,1.00
2022-09-13T08:41:42.567Z,0.80
2022-09-13T08:44:26.497Z,0.90
2022-09-13T08:47:16.232Z,0.83
2022-09-13T08:49:46.501Z,1.00
2022-09-13T08:52:28.423Z,1.03
2022-09-13T08:54:58.328Z,1.20
2022-09-13T08:57:52.410Z,1.50
2022-09-13T09:00:25.836Z,1.30
2022-09-13T09:03:07.678Z,1.33
2022-09-13T09:05:45.013Z,1.03
2022-09-13T09:08:19.775Z,1.13
2022-09-13T09:10:49.224Z,1.00
2022-09-13T09:13:26.366Z,1.10
2022-09-13T09:16:00.250Z,1.00
2022-09-13T09:18:36.045Z,1.20
2022-09-13T09:21:04.071Z,1.03
2022-09-13T09:23:36.742Z,1.30
2022-09-13T09:26:23.834Z,1.00
2022-09-13T09:29:00.367Z,1.20
2022-09-13T09:31:48.439Z,0.97
2022-09-13T09:34:49.764Z,0.90
2022-09-13T09:37:22.343Z,1.00
2022-09-13T09:39:49.805Z,1.00
2022-09-13T09:42:24.909Z,0.97
2022-09-13T09:45:05.605Z,1.40
2022-09-13T09:47:44.369Z,1.47
2022-09-13T09:50:16.214Z,0.83
2022-09-13T09:52:51.702Z,0.70
2022-09-13T09:55:27.649Z,0.80
2022-09-13T09:57:58.016Z,0.70
2022-09-13T10:00:30.191Z,0.80
2022-09-13T10:03:01.218Z,0.83
2022-09-13T10:05:28.967Z,0.80
2022-09-13T10:08:02.823Z,1.30
2022-09-13T10:10:36.934Z,0.90
2022-09-13T10:13:06.991Z,0.83
2022-09-13T10:15:35.418Z,0.90
2022-09-13T10:18:03.921Z,0.80
2022-09-13T10:20:31.528Z,0.60
2022-09-13T10:23:16.148Z,1.00
2022-09-13T10:25:48.002Z,0.90
2022-09-13T10:28:19.547Z,0.93
2022-09-13T10:30:54.472Z,0.60
2022-09-13T10:33:35.217Z,0.87
2022-09-13T10:36:08.114Z,0.70
2022-09-13T10:38:45.426Z,0.57
2022-09-13T10:41:23.527Z,0.70
2022-09-13T10:43:57.125Z,0.60
2022-09-13T10:46:23.945Z,0.83
2022-09-13T10:48:56.208Z,0.87
2022-09-13T10:51:38.709Z,0.70
2022-09-13T10:54:17.182Z,0.53
2022-09-13T10:56:45.229Z,0.50
2022-09-13T10:59:29.666Z,0.60
2022-09-13T11:02:26.731Z,0.53
2022-09-13T11:05:14.547Z,0.70
2022-09-13T11:08:05.493Z,0.60
2022-09-13T11:10:45.926Z,0.47
2022-09-13T11:16:37.203Z,0.40
2022-09-13T11:19:40.734Z,0.73
2022-09-13T11:22:26.631Z,0.50
2022-09-13T11:25:09.723Z,0.70
2022-09-13T11:27:53.691Z,0.30
2022-09-13T11:30:25.360Z,0.60
2022-09-13T11:33:13.059Z,0.40
2022-09-13T11:35:49.525Z,0.50
2022-09-13T11:38:37.003Z,0.53
2022-09-13T11:41:03.815Z,1.23
2022-09-13T11:43:42.613Z,0.60
2022-09-13T11:46:23.010Z,0.63
2022-09-13T11:48:57.985Z,0.50
2022-09-13T11:51:45.909Z,0.43
2022-09-13T11:54:50.155Z,0.40
2022-09-13T11:57:26.262Z,0.50
2022-09-13T12:00:08.536Z,0.60
2022-09-13T12:02:49.280Z,0.57
2022-09-13T12:05:25.074Z,0.50
2022-09-13T12:08:19.344Z,0.40
2022-09-13T12:10:54.268Z,0.60
2022-09-13T12:13:41.567Z,0.70
2022-09-13T12:16:12.830Z,0.60
2022-09-13T12:18:44.508Z,0.80
2022-09-13T12:21:15.580Z,0.40
2022-09-13T12:23:53.572Z,0.60
2022-09-13T12:26:40.994Z,0.37
2022-09-13T12:29:32.316Z,0.67
2022-09-13T12:32:05.205Z,0.50
2022-09-13T12:34:43.735Z,0.40
2022-09-13T12:37:24.544Z,0.50
2022-09-13T12:40:12.315Z,0.70
2022-09-13T12:43:25.064Z,0.60
2022-09-13T12:46:00.519Z,0.40
2022-09-13T12:48:57.733Z,0.87
2022-09-13T12:51:29.491Z,0.30
2022-09-13T12:54:23.735Z,0.50
2022-09-13T12:57:16.249Z,0.90
2022-09-13T12:59:58.897Z,0.50
2022-09-13T13:02:38.639Z,0.40
2022-09-13T13:05:26.902Z,0.67
2022-09-13T13:07:58.586Z,0.73
2022-09-13T13:10:30.666Z,0.80
2022-09-13T13:13:10.286Z,0.60
2022-09-13T13:15:36.649Z,0.43
2022-09-13T13:18:32.501Z,0.70
2022-09-13T13:20:58.811Z,0.53
2022-09-13T13:23:31.191Z,0.40
2022-09-13T13:26:02.684Z,0.60
2022-09-13T13:28:44.596Z,0.67
2022-09-13T13:31:35.424Z,0.50
2022-09-13T13:34:23.789Z,0.53
2022-09-13T13:36:59.776Z,0.60
2022-09-13T13:39:26.093Z,0.80
2022-09-13T13:41:55.316Z,0.60
2022-09-13T13:44:21.879Z,0.30
2022-09-13T13:46:49.520Z,0.50
2022-09-13T13:49:31.221Z,0.70
2022-09-13T13:52:16.702Z,0.47
2022-09-13T13:54:44.110Z,0.80
2022-09-13T13:57:32.156Z,0.63
2022-09-13T14:00:13.898Z,0.83
2022-09-13T14:03:15.821Z,0.63
2022-09-13T14:06:10.723Z,0.60
2022-09-13T14:08:37.135Z,0.57
2022-09-13T14:11:33.244Z,1.47
2022-09-13T14:14:18.948Z,0.80
2022-09-13T14:16:55.224Z,0.40
2022-09-13T14:19:31.345Z,0.70
2022-09-13T14:22:19.307Z,0.80
2022-09-13T14:24:53.469Z,1.00
2022-09-13T14:27:24.230Z,0.73
2022-09-13T14:29:54.252Z,0.47
2022-09-13T14:32:23.890Z,0.77
2022-09-13T14:34:58.441Z,0.97
2022-09-13T14:37:32.838Z,0.80
2022-09-13T14:40:08.385Z,0.90
2022-09-13T14:42:46.092Z,0.90
2022-09-13T14:45:14.868Z,0.70
2022-09-13T14:47:55.649Z,1.20
2022-09-13T14:50:30.015Z,0.70
2022-09-13T14:53:00.887Z,0.83
2022-09-13T14:55:32.723Z,0.70
2022-09-13T14:58:06.141Z,0.50
2022-09-13T15:00:37.970Z,0.53
2022-09-13T15:03:12.364Z,0.50
2022-09-13T15:05:39.398Z,0.43
2022-09-13T15:08:33.865Z,1.30
2022-09-13T15:11:06.928Z,0.67
2022-09-13T15:13:34.576Z,0.53
2022-09-13T15:16:01.579Z,0.60
2022-09-13T15:18:36.542Z,0.67
2022-09-13T15:21:06.477Z,0.50
2022-09-13T15:23:35.641Z,0.47
2022-09-13T15:26:08.378Z,0.80
2022-09-13T15:28:47.710Z,0.60
2022-09-13T15:31:26.027Z,0.70
2022-09-13T15:34:12.646Z,0.90
2022-09-13T15:36:39.301Z,0.90
2022-09-13T15:39:08.345Z,0.50
2022-09-13T15:41:39.611Z,0.70
2022-09-13T15:44:08.500Z,0.67
2022-09-13T15:46:44.204Z,0.70
2022-09-13T15:49:17.085Z,0.57
2022-09-13T15:51:44.419Z,0.87
2022-09-13T15:54:16.968Z,0.50
2022-09-13T15:56:47.369Z,0.50
2022-09-13T15:59:16.027Z,0.83
2022-09-13T16:01:44.349Z,0.77
2022-09-13T16:04:11.843Z,0.57
2022-09-13T16:06:38.762Z,0.50
2022-09-13T16:09:18.813Z,1.07
2022-09-13T16:11:46.742Z,0.70
2022-09-13T16:14:14.332Z,0.60
2022-09-13T16:16:40.825Z,1.03
2022-09-13T16:19:15.325Z,0.90
2022-09-13T16:21:42.910Z,0.67
2022-09-13T16:24:09.436Z,0.57
2022-09-13T16:26:35.991Z,0.80
2022-09-13T16:29:02.495Z,8.30
2022-09-13T16:31:28.946Z,1.20
2022-09-13T16:33:55.630Z,1.57
2022-09-13T16:36:23.185Z,11.23
2022-09-13T16:38:49.656Z,0.80
2022-09-13T16:41:18.135Z,2.33
2022-09-13T16:43:44.527Z,9.17
2022-09-13T16:46:13.467Z,7.50
2022-09-13T16:48:40.476Z,0.97
2022-09-13T16:51:09.421Z,1.93
2022-09-13T16:53:38.997Z,2.80
2022-09-13T16:56:11.014Z,1.13
2022-09-13T16:58:39.229Z,1.00
2022-09-13T17:01:07.661Z,1.20
2022-09-13T17:03:36.078Z,1.10
2022-09-13T17:06:14.759Z,0.90
2022-09-13T17:08:48.296Z,1.30
2022-09-13T17:11:17.542Z,1.17
2022-09-13T17:13:44.099Z,1.13
2022-09-13T17:16:27.899Z,0.87
2022-09-13T17:18:57.335Z,1.23
2022-09-13T17:21:24.725Z,1.00
2022-09-13T17:23:51.742Z,1.03
2022-09-13T17:26:18.226Z,0.80
2022-09-13T17:28:44.682Z,1.10
2022-09-13T17:31:11.176Z,0.90
2022-09-13T17:33:37.607Z,0.73
2022-09-13T17:36:09.941Z,0.90
2022-09-13T17:38:37.162Z,0.90
2022-09-13T17:41:12.192Z,0.63
2022-09-13T17:43:40.065Z,0.70
2022-09-13T17:46:08.710Z,1.03
2022-09-13T17:48:35.325Z,0.80
2022-09-13T17:51:07.035Z,0.60
2022-09-13T17:53:46.005Z,1.20
2022-09-13T17:56:20.097Z,1.40
2022-09-13T17:58:46.879Z,0.93
2022-09-13T18:01:13.871Z,0.97
2022-09-13T18:03:40.467Z,0.93
2022-09-13T18:06:08.712Z,0.70
2022-09-13T18:08:37.392Z,1.00
2022-09-13T18:11:17.393Z,0.77
2022-09-13T18:13:46.166Z,0.73
2022-09-13T18:16:20.908Z,0.70
2022-09-13T18:18:49.341Z,0.80
2022-09-13T18:21:19.086Z,0.90
2022-09-13T18:23:47.309Z,1.27
2022-09-13T18:26:16.546Z,1.30
2022-09-13T18:28:43.953Z,0.97
2022-09-13T18:31:19.460Z,0.90
2022-09-13T18:33:46.033Z,1.30
2022-09-13T18:36:16.331Z,0.90
2022-09-13T18:38:49.364Z,1.00
2022-09-13T18:41:18.630Z,1.30
2022-09-13T18:43:50.679Z,0.73
2022-09-13T18:46:24.024Z,1.10
2022-09-13T18:48:53.322Z,1.00
2022-09-13T18:51:29.254Z,1.23
2022-09-13T18:53:59.678Z,0.80
2022-09-13T18:56:27.894Z,1.00
2022-09-13T18:58:56.623Z,1.30
2022-09-13T19:01:29.263Z,0.83
2022-09-13T19:03:58.358Z,0.87
2022-09-13T19:06:26.716Z,1.20
2022-09-13T19:08:55.584Z,1.93
2022-09-13T19:11:45.328Z,1.03
2022-09-13T19:14:15.546Z,1.20
2022-09-13T19:16:44.292Z,1.10
2022-09-13T19:19:10.911Z,0.83
2022-09-13T19:21:37.611Z,1.13
2022-09-13T19:24:09.903Z,1.00
2022-09-13T19:26:40.081Z,0.90
2022-09-13T19:29:11.533Z,0.80
2022-09-13T19:31:40.529Z,0.87
2022-09-13T19:34:08.192Z,0.60
2022-09-13T19:36:36.566Z,1.03
2022-09-13T19:39:04.900Z,0.90
2022-09-13T19:41:32.298Z,1.00
2022-09-13T19:44:01.480Z,1.43
2022-09-13T19:46:31.910Z,0.77
2022-09-13T19:48:59.745Z,0.73
2022-09-13T19:51:34.788Z,1.30
2022-09-13T19:54:01.872Z,0.70
2022-09-13T19:56:40.451Z,0.80
2022-09-13T19:59:09.679Z,1.33
2022-09-13T20:01:42.407Z,1.13
2022-09-13T20:04:14.797Z,1.00
2022-09-13T20:06:44.165Z,1.57
2022-09-13T20:09:15.846Z,1.07
2022-09-13T20:11:45.726Z,0.50
2022-09-13T20:14:14.631Z,0.73
2022-09-13T20:16:42.787Z,0.57
2022-09-13T20:19:38.667Z,0.83
2022-09-13T20:22:01.439Z,0.80
2022-09-13T20:24:28.082Z,0.60
2022-09-13T20:26:54.849Z,1.17
2022-09-13T20:29:21.337Z,0.90
2022-09-13T20:31:47.764Z,0.70
2022-09-13T20:34:15.138Z,0.60
2022-09-13T20:36:44.139Z,1.43
2022-09-13T20:39:11.121Z,0.90
2022-09-13T20:41:37.621Z,0.60
2022-09-13T20:44:04.112Z,1.23
2022-09-13T20:46:31.751Z,0.60
2022-09-13T20:48:58.559Z,0.70
2022-09-13T20:51:25.520Z,0.87
2022-09-13T20:54:00.360Z,0.60
2022-09-13T20:56:30.485Z,0.83
2022-09-13T20:59:00.152Z,0.60
2022-09-13T21:01:29.603Z,0.73
2022-09-13T21:03:56.720Z,0.60
2022-09-13T21:06:25.879Z,0.80
2022-09-13T21:08:53.036Z,0.90
2022-09-13T21:11:25.572Z,0.80
2022-09-13T21:13:54.763Z,0.90
2022-09-13T21:16:26.217Z,1.07
2022-09-13T21:18:53.370Z,0.57
2022-09-13T21:21:25.801Z,0.83
2022-09-13T21:23:52.777Z,0.80
2022-09-13T21:26:22.843Z,1.20
2022-09-13T21:28:50.117Z,0.70
2022-09-13T21:31:28.849Z,0.60
2022-09-13T21:34:00.602Z,0.57
2022-09-13T21:36:27.935Z,0.80
2022-09-13T21:38:57.950Z,0.60
2022-09-13T21:41:26.055Z,0.60
2022-09-13T21:43:52.990Z,0.67
2022-09-13T21:46:31.470Z,0.90
2022-09-13T21:49:00.337Z,0.80
2022-09-13T21:51:29.211Z,0.87
2022-09-13T21:53:58.914Z,0.60
2022-09-13T21:56:27.938Z,0.60
2022-09-13T21:58:58.299Z,0.80
2022-09-13T22:01:27.262Z,1.10
2022-09-13T22:03:54.133Z,1.13
2022-09-13T22:06:22.027Z,1.00
2022-09-13T22:08:56.622Z,0.80
2022-09-13T22:11:28.886Z,0.77
2022-09-13T22:13:56.975Z,1.10
2022-09-13T22:16:26.654Z,0.83
2022-09-13T22:18:59.403Z,0.80
2022-09-13T22:21:28.815Z,0.87
2022-09-13T22:23:55.968Z,0.63
2022-09-13T22:26:25.258Z,0.70
2022-09-13T22:28:53.663Z,1.20
2022-09-13T22:31:22.762Z,0.70
2022-09-13T22:33:50.687Z,0.97
2022-09-13T22:36:18.897Z,0.60
2022-09-13T22:38:51.901Z,1.10
2022-09-13T22:41:26.212Z,0.70
2022-09-13T22:43:53.201Z,0.90
2022-09-13T22:46:22.530Z,1.13
2022-09-13T22:48:49.561Z,0.90
2022-09-13T22:51:18.479Z,0.70
2022-09-13T22:53:47.736Z,0.90
2022-09-13T22:56:26.077Z,0.80
2022-09-13T22:58:54.951Z,0.70
2022-09-13T23:01:21.760Z,0.93
2022-09-13T23:03:49.193Z,1.60
2022-09-13T23:06:20.881Z,1.10
2022-09-13T23:08:48.991Z,0.80
2022-09-13T23:11:18.319Z,0.90
2022-09-13T23:13:46.749Z,1.00
2022-09-13T23:16:17.626Z,0.87
2022-09-13T23:18:44.272Z,0.87
2022-09-13T23:21:11.157Z,1.03
2022-09-13T23:23:38.063Z,0.97
2022-09-13T23:26:09.893Z,1.00
2022-09-13T23:28:37.553Z,0.80
2022-09-13T23:31:15.850Z,0.90
2022-09-13T23:33:44.468Z,1.00
2022-09-13T23:36:12.503Z,0.90
2022-09-13T23:38:39.765Z,0.90
2022-09-13T23:41:07.177Z,1.00
2022-09-13T23:43:34.387Z,1.33
2022-09-13T23:46:00.806Z,0.80
2022-09-13T23:48:27.283Z,0.80
2022-09-13T23:51:08.429Z,0.80
2022-09-13T23:53:36.546Z,0.83
2022-09-13T23:56:06.235Z,1.00
2022-09-13T23:58:32.773Z,1.10
